<?xml version="1.0" encoding="UTF-8" standalone="no" ?>
<gpx xmlns="http://www.topografix.com/GPX/1/1" xmlns:xsi="http://www.w3.org/2001/XMLSchema-instance" xsi:schemaLocation="http://www.topografix.com/GPX/1/1 http://www.topografix.com/GPX/1/1/gpx.xsd" version="1.1" creator="VisuGPX - https://www.visugpx.com">
  <metadata>
    <name>bogeryon</name>
    <desc><![CDATA[attelage en pair
]]></desc>
  </metadata>
  <trk>
    <name><![CDATA[bogeryon]]></name>
    <trkseg>
      <trkpt lat="47.81438" lon="-2.98982">
        <ele>96.5</ele>
        <time>2020-02-09T14:29:20.000Z</time>
      </trkpt>
      <trkpt lat="47.81393" lon="-2.98609">
        <ele>93.6</ele>
        <time>2020-02-09T14:30:10.886Z</time>
      </trkpt>
      <trkpt lat="47.81383" lon="-2.9851">
        <ele>94.4</ele>
        <time>2020-02-09T14:30:24.333Z</time>
      </trkpt>
      <trkpt lat="47.81391" lon="-2.98438">
        <ele>95.3</ele>
        <time>2020-02-09T14:30:34.195Z</time>
      </trkpt>
      <trkpt lat="47.81408" lon="-2.98355">
        <ele>98.3</ele>
        <time>2020-02-09T14:30:45.746Z</time>
      </trkpt>
      <trkpt lat="47.81539" lon="-2.98531">
        <ele>118.2</ele>
        <time>2020-02-09T14:31:21.099Z</time>
      </trkpt>
      <trkpt lat="47.81554" lon="-2.98602">
        <ele>117.7</ele>
        <time>2020-02-09T14:31:30.976Z</time>
      </trkpt>
      <trkpt lat="47.81568" lon="-2.98718">
        <ele>116.9</ele>
        <time>2020-02-09T14:31:46.836Z</time>
      </trkpt>
      <trkpt lat="47.81584" lon="-2.98816">
        <ele>122</ele>
        <time>2020-02-09T14:32:00.372Z</time>
      </trkpt>
      <trkpt lat="47.81592" lon="-2.98819">
        <ele>122</ele>
        <time>2020-02-09T14:32:01.986Z</time>
      </trkpt>
      <trkpt lat="47.81908" lon="-2.98657">
        <ele>131</ele>
        <time>2020-02-09T14:33:08.994Z</time>
      </trkpt>
      <trkpt lat="47.82188" lon="-2.98512">
        <ele>124.9</ele>
        <time>2020-02-09T14:34:08.230Z</time>
      </trkpt>
      <trkpt lat="47.82464" lon="-2.98366">
        <ele>118.6</ele>
        <time>2020-02-09T14:35:06.928Z</time>
      </trkpt>
      <trkpt lat="47.82509" lon="-2.98358">
        <ele>114.5</ele>
        <time>2020-02-09T14:35:15.955Z</time>
      </trkpt>
      <trkpt lat="47.82678" lon="-2.98311">
        <ele>110</ele>
        <time>2020-02-09T14:35:50.383Z</time>
      </trkpt>
      <trkpt lat="47.82864" lon="-2.98262">
        <ele>113.1</ele>
        <time>2020-02-09T14:36:28.183Z</time>
      </trkpt>
      <trkpt lat="47.8293" lon="-2.98221">
        <ele>112</ele>
        <time>2020-02-09T14:36:42.589Z</time>
      </trkpt>
      <trkpt lat="47.8312" lon="-2.98023">
        <ele>102.9</ele>
        <time>2020-02-09T14:37:28.965Z</time>
      </trkpt>
      <trkpt lat="47.83231" lon="-2.97912">
        <ele>103.7</ele>
        <time>2020-02-09T14:37:55.783Z</time>
      </trkpt>
      <trkpt lat="47.83034" lon="-2.97681">
        <ele>104.1</ele>
        <time>2020-02-09T14:38:46.077Z</time>
      </trkpt>
      <trkpt lat="47.8268" lon="-2.97277">
        <ele>111.8</ele>
        <time>2020-02-09T14:40:15.238Z</time>
      </trkpt>
      <trkpt lat="47.82547" lon="-2.97415">
        <ele>97.7</ele>
        <time>2020-02-09T14:40:47.774Z</time>
      </trkpt>
      <trkpt lat="47.82527" lon="-2.97466">
        <ele>93.5</ele>
        <time>2020-02-09T14:40:55.596Z</time>
      </trkpt>
      <trkpt lat="47.8252" lon="-2.97517">
        <ele>91.4</ele>
        <time>2020-02-09T14:41:02.721Z</time>
      </trkpt>
      <trkpt lat="47.82495" lon="-2.97545">
        <ele>92.5</ele>
        <time>2020-02-09T14:41:08.903Z</time>
      </trkpt>
      <trkpt lat="47.82432" lon="-2.97536">
        <ele>93.8</ele>
        <time>2020-02-09T14:41:21.634Z</time>
      </trkpt>
      <trkpt lat="47.82392" lon="-2.97535">
        <ele>97.7</ele>
        <time>2020-02-09T14:41:29.516Z</time>
      </trkpt>
      <trkpt lat="47.82344" lon="-2.97566">
        <ele>100.9</ele>
        <time>2020-02-09T14:41:40.108Z</time>
      </trkpt>
      <trkpt lat="47.82145" lon="-2.97673">
        <ele>106.3</ele>
        <time>2020-02-09T14:42:22.344Z</time>
      </trkpt>
      <trkpt lat="47.8213" lon="-2.97676">
        <ele>106.9</ele>
        <time>2020-02-09T14:42:25.469Z</time>
      </trkpt>
      <trkpt lat="47.82117" lon="-2.97673">
        <ele>107</ele>
        <time>2020-02-09T14:42:27.985Z</time>
      </trkpt>
      <trkpt lat="47.8209" lon="-2.97627">
        <ele>101.5</ele>
        <time>2020-02-09T14:42:36.200Z</time>
      </trkpt>
      <trkpt lat="47.82049" lon="-2.97457">
        <ele>97.4</ele>
        <time>2020-02-09T14:43:00.407Z</time>
      </trkpt>
      <trkpt lat="47.82056" lon="-2.97337">
        <ele>93.1</ele>
        <time>2020-02-09T14:43:16.676Z</time>
      </trkpt>
      <trkpt lat="47.82053" lon="-2.97277">
        <ele>87.1</ele>
        <time>2020-02-09T14:43:24.728Z</time>
      </trkpt>
      <trkpt lat="47.81945" lon="-2.97155">
        <ele>81.7</ele>
        <time>2020-02-09T14:43:51.868Z</time>
      </trkpt>
      <trkpt lat="47.81926" lon="-2.97034">
        <ele>81.1</ele>
        <time>2020-02-09T14:44:08.553Z</time>
      </trkpt>
      <trkpt lat="47.81883" lon="-2.9697">
        <ele>82.3</ele>
        <time>2020-02-09T14:44:20.794Z</time>
      </trkpt>
      <trkpt lat="47.8184" lon="-2.96888">
        <ele>87.3</ele>
        <time>2020-02-09T14:44:34.662Z</time>
      </trkpt>
      <trkpt lat="47.81832" lon="-2.96811">
        <ele>90.6</ele>
        <time>2020-02-09T14:44:45.158Z</time>
      </trkpt>
      <trkpt lat="47.81847" lon="-2.96771">
        <ele>97.6</ele>
        <time>2020-02-09T14:44:51.389Z</time>
      </trkpt>
      <trkpt lat="47.81867" lon="-2.96773">
        <ele>98</ele>
        <time>2020-02-09T14:44:55.419Z</time>
      </trkpt>
      <trkpt lat="47.8188" lon="-2.96799">
        <ele>97.7</ele>
        <time>2020-02-09T14:44:59.624Z</time>
      </trkpt>
      <trkpt lat="47.81896" lon="-2.96817">
        <ele>98</ele>
        <time>2020-02-09T14:45:03.704Z</time>
      </trkpt>
      <trkpt lat="47.81924" lon="-2.96811">
        <ele>102.5</ele>
        <time>2020-02-09T14:45:09.321Z</time>
      </trkpt>
      <trkpt lat="47.81953" lon="-2.96788">
        <ele>104.8</ele>
        <time>2020-02-09T14:45:15.958Z</time>
      </trkpt>
      <trkpt lat="47.81982" lon="-2.96773">
        <ele>106.9</ele>
        <time>2020-02-09T14:45:22.165Z</time>
      </trkpt>
      <trkpt lat="47.82227" lon="-2.96649">
        <ele>114.1</ele>
        <time>2020-02-09T14:46:13.919Z</time>
      </trkpt>
      <trkpt lat="47.82328" lon="-2.96587">
        <ele>111.3</ele>
        <time>2020-02-09T14:46:35.816Z</time>
      </trkpt>
      <trkpt lat="47.82334" lon="-2.96563">
        <ele>111.5</ele>
        <time>2020-02-09T14:46:39.286Z</time>
      </trkpt>
      <trkpt lat="47.82336" lon="-2.9648">
        <ele>114.9</ele>
        <time>2020-02-09T14:46:50.420Z</time>
      </trkpt>
      <trkpt lat="47.82313" lon="-2.963">
        <ele>120.7</ele>
        <time>2020-02-09T14:47:15.127Z</time>
      </trkpt>
      <trkpt lat="47.8252" lon="-2.96184">
        <ele>119.2</ele>
        <time>2020-02-09T14:47:59.330Z</time>
      </trkpt>
      <trkpt lat="47.82693" lon="-2.96101">
        <ele>124.9</ele>
        <time>2020-02-09T14:48:35.735Z</time>
      </trkpt>
      <trkpt lat="47.82984" lon="-2.95964">
        <ele>127.9</ele>
        <time>2020-02-09T14:49:36.819Z</time>
      </trkpt>
      <trkpt lat="47.83166" lon="-2.95871">
        <ele>126.5</ele>
        <time>2020-02-09T14:50:15.368Z</time>
      </trkpt>
      <trkpt lat="47.83424" lon="-2.95751">
        <ele>117</ele>
        <time>2020-02-09T14:51:09.416Z</time>
      </trkpt>
      <trkpt lat="47.83517" lon="-2.96208">
        <ele>121.4</ele>
        <time>2020-02-09T14:52:13.553Z</time>
      </trkpt>
      <trkpt lat="47.83655" lon="-2.95905">
        <ele>120.9</ele>
        <time>2020-02-09T14:53:02.712Z</time>
      </trkpt>
      <trkpt lat="47.83862" lon="-2.95458">
        <ele>117</ele>
        <time>2020-02-09T14:54:15.697Z</time>
      </trkpt>
      <trkpt lat="47.8407" lon="-2.9502">
        <ele>114.2</ele>
        <time>2020-02-09T14:55:27.827Z</time>
      </trkpt>
      <trkpt lat="47.8425" lon="-2.94638">
        <ele>112</ele>
        <time>2020-02-09T14:56:30.397Z</time>
      </trkpt>
      <trkpt lat="47.8434" lon="-2.94449">
        <ele>111.5</ele>
        <time>2020-02-09T14:57:01.507Z</time>
      </trkpt>
      <trkpt lat="47.84256" lon="-2.94245">
        <ele>97.5</ele>
        <time>2020-02-09T14:57:33.675Z</time>
      </trkpt>
      <trkpt lat="47.84577" lon="-2.94138">
        <ele>111.8</ele>
        <time>2020-02-09T14:58:39.369Z</time>
      </trkpt>
      <trkpt lat="47.84888" lon="-2.9407">
        <ele>83.6</ele>
        <time>2020-02-09T14:59:42.278Z</time>
      </trkpt>
      <trkpt lat="47.84934" lon="-2.94053">
        <ele>81.8</ele>
        <time>2020-02-09T14:59:51.830Z</time>
      </trkpt>
      <trkpt lat="47.84891" lon="-2.93993">
        <ele>83.2</ele>
        <time>2020-02-09T15:00:03.622Z</time>
      </trkpt>
      <trkpt lat="47.8489" lon="-2.93719">
        <ele>77.3</ele>
        <time>2020-02-09T15:00:40.393Z</time>
      </trkpt>
      <trkpt lat="47.84841" lon="-2.93682">
        <ele>76</ele>
        <time>2020-02-09T15:00:51.445Z</time>
      </trkpt>
      <trkpt lat="47.84833" lon="-2.93731">
        <ele>76.1</ele>
        <time>2020-02-09T15:00:58.115Z</time>
      </trkpt>
      <trkpt lat="47.84834" lon="-2.93789">
        <ele>79.4</ele>
        <time>2020-02-09T15:01:05.996Z</time>
      </trkpt>
      <trkpt lat="47.84828" lon="-2.93815">
        <ele>78.7</ele>
        <time>2020-02-09T15:01:09.613Z</time>
      </trkpt>
      <trkpt lat="47.84774" lon="-2.93916">
        <ele>82.4</ele>
        <time>2020-02-09T15:01:26.888Z</time>
      </trkpt>
      <trkpt lat="47.84835" lon="-2.9382">
        <ele>79.9</ele>
      </trkpt>
      <trkpt lat="47.84837" lon="-2.93739">
        <ele>77.6</ele>
      </trkpt>
      <trkpt lat="47.84844" lon="-2.9369">
        <ele>76.3</ele>
      </trkpt>
      <trkpt lat="47.84888" lon="-2.93724">
        <ele>77.4</ele>
      </trkpt>
      <trkpt lat="47.84898" lon="-2.93711">
        <ele>77.2</ele>
      </trkpt>
      <trkpt lat="47.84939" lon="-2.93717">
        <ele>78.3</ele>
      </trkpt>
      <trkpt lat="47.85024" lon="-2.9373">
        <ele>77.7</ele>
      </trkpt>
      <trkpt lat="47.85092" lon="-2.93746">
        <ele>74.2</ele>
      </trkpt>
      <trkpt lat="47.85142" lon="-2.93756">
        <ele>70.7</ele>
      </trkpt>
      <trkpt lat="47.85189" lon="-2.93764">
        <ele>64.1</ele>
      </trkpt>
      <trkpt lat="47.85279" lon="-2.9378">
        <ele>56.7</ele>
      </trkpt>
      <trkpt lat="47.85394" lon="-2.93803">
        <ele>59.9</ele>
      </trkpt>
      <trkpt lat="47.85482" lon="-2.93821">
        <ele>59.4</ele>
      </trkpt>
      <trkpt lat="47.85355" lon="-2.94221">
        <ele>66.5</ele>
      </trkpt>
      <trkpt lat="47.85501" lon="-2.94479">
        <ele>59.8</ele>
      </trkpt>
      <trkpt lat="47.85591" lon="-2.94479">
        <ele>55.3</ele>
      </trkpt>
      <trkpt lat="47.85646" lon="-2.94624">
        <ele>54.3</ele>
      </trkpt>
      <trkpt lat="47.85764" lon="-2.94852">
        <ele>43.4</ele>
      </trkpt>
      <trkpt lat="47.85935" lon="-2.94822">
        <ele>48.4</ele>
      </trkpt>
      <trkpt lat="47.85997" lon="-2.94788">
        <ele>49.6</ele>
      </trkpt>
      <trkpt lat="47.86045" lon="-2.94661">
        <ele>53.4</ele>
      </trkpt>
      <trkpt lat="47.86105" lon="-2.9453">
        <ele>49.4</ele>
      </trkpt>
      <trkpt lat="47.86087" lon="-2.94777">
        <ele>53.8</ele>
      </trkpt>
      <trkpt lat="47.86045" lon="-2.9493">
        <ele>54.4</ele>
      </trkpt>
      <trkpt lat="47.85977" lon="-2.95196">
        <ele>47.3</ele>
      </trkpt>
      <trkpt lat="47.85879" lon="-2.9542">
        <ele>41.6</ele>
      </trkpt>
      <trkpt lat="47.8601" lon="-2.96186">
        <ele>48.1</ele>
      </trkpt>
      <trkpt lat="47.8602" lon="-2.96564">
        <ele>41.8</ele>
      </trkpt>
      <trkpt lat="47.86155" lon="-2.9656">
        <ele>53.5</ele>
      </trkpt>
      <trkpt lat="47.86203" lon="-2.96564">
        <ele>58.8</ele>
      </trkpt>
      <trkpt lat="47.86195" lon="-2.96597">
        <ele>57.9</ele>
      </trkpt>
      <trkpt lat="47.86238" lon="-2.96597">
        <ele>60.7</ele>
      </trkpt>
      <trkpt lat="47.86303" lon="-2.96534">
        <ele>60.6</ele>
      </trkpt>
      <trkpt lat="47.86403" lon="-2.96526">
        <ele>63</ele>
      </trkpt>
      <trkpt lat="47.86458" lon="-2.96564">
        <ele>66.6</ele>
      </trkpt>
      <trkpt lat="47.86463" lon="-2.96579">
        <ele>66.7</ele>
      </trkpt>
      <trkpt lat="47.86589" lon="-2.96634">
        <ele>65.8</ele>
      </trkpt>
      <trkpt lat="47.86859" lon="-2.96608">
        <ele>71.9</ele>
      </trkpt>
      <trkpt lat="47.86499" lon="-2.97886">
        <ele>68.1</ele>
      </trkpt>
      <trkpt lat="47.86471" lon="-2.97878">
        <ele>68.3</ele>
      </trkpt>
      <trkpt lat="47.86446" lon="-2.98006">
        <ele>73</ele>
      </trkpt>
      <trkpt lat="47.86376" lon="-2.97968">
        <ele>71.7</ele>
      </trkpt>
      <trkpt lat="47.86338" lon="-2.9792">
        <ele>68.7</ele>
      </trkpt>
      <trkpt lat="47.86283" lon="-2.98002">
        <ele>60.8</ele>
      </trkpt>
      <trkpt lat="47.86245" lon="-2.98263">
        <ele>48.4</ele>
      </trkpt>
      <trkpt lat="47.8623" lon="-2.98293">
        <ele>44.2</ele>
      </trkpt>
      <trkpt lat="47.86193" lon="-2.97875">
        <ele>41</ele>
      </trkpt>
      <trkpt lat="47.86092" lon="-2.97867">
        <ele>36</ele>
      </trkpt>
      <trkpt lat="47.85975" lon="-2.97949">
        <ele>36.7</ele>
      </trkpt>
      <trkpt lat="47.86145" lon="-2.98357">
        <ele>33.7</ele>
      </trkpt>
      <trkpt lat="47.861" lon="-2.99422">
        <ele>32.7</ele>
      </trkpt>
      <trkpt lat="47.86193" lon="-3.00296">
        <ele>32.2</ele>
      </trkpt>
      <trkpt lat="47.8627" lon="-3.00468">
        <ele>29.5</ele>
      </trkpt>
      <trkpt lat="47.86316" lon="-3.00636">
        <ele>30.4</ele>
      </trkpt>
      <trkpt lat="47.86336" lon="-3.0089">
        <ele>30.2</ele>
      </trkpt>
      <trkpt lat="47.86373" lon="-3.01544">
        <ele>29.3</ele>
      </trkpt>
      <trkpt lat="47.86249" lon="-3.01424">
        <ele>38</ele>
      </trkpt>
      <trkpt lat="47.86194" lon="-3.01433">
        <ele>42.2</ele>
      </trkpt>
      <trkpt lat="47.86108" lon="-3.01385">
        <ele>49</ele>
      </trkpt>
      <trkpt lat="47.85975" lon="-3.0139">
        <ele>52.8</ele>
      </trkpt>
      <trkpt lat="47.85765" lon="-3.01351">
        <ele>63.1</ele>
      </trkpt>
      <trkpt lat="47.85647" lon="-3.01325">
        <ele>78.3</ele>
      </trkpt>
      <trkpt lat="47.85529" lon="-3.01274">
        <ele>87.6</ele>
      </trkpt>
      <trkpt lat="47.85382" lon="-3.01209">
        <ele>88.8</ele>
      </trkpt>
      <trkpt lat="47.85114" lon="-3.01149">
        <ele>83.9</ele>
      </trkpt>
      <trkpt lat="47.85068" lon="-3.01175">
        <ele>81.1</ele>
      </trkpt>
      <trkpt lat="47.84961" lon="-3.01119">
        <ele>83.7</ele>
      </trkpt>
      <trkpt lat="47.8484" lon="-3.01033">
        <ele>87.2</ele>
      </trkpt>
      <trkpt lat="47.84766" lon="-3.00655">
        <ele>102.1</ele>
      </trkpt>
      <trkpt lat="47.84685" lon="-3.00767">
        <ele>96.4</ele>
      </trkpt>
      <trkpt lat="47.84624" lon="-3.0105">
        <ele>89</ele>
      </trkpt>
      <trkpt lat="47.84624" lon="-3.01261">
        <ele>85.3</ele>
      </trkpt>
      <trkpt lat="47.84668" lon="-3.01415">
        <ele>79.1</ele>
      </trkpt>
      <trkpt lat="47.84584" lon="-3.01424">
        <ele>78.8</ele>
      </trkpt>
      <trkpt lat="47.84489" lon="-3.01458">
        <ele>86.6</ele>
      </trkpt>
    </trkseg>
  </trk>
</gpx>